Time;durP1;ratioP1;P1;durP2;ratioP2;P2;SDS_P1;SDS_P2;PMS_P1;PMS_P2;Temp;Humidity;BMP_temperature;BMP_pressure;BME280_temperature;BME280_humidity;BME280_pressure;Samples;Min_cycle;Max_cycle;Signal;HPM_P1;HPM_P2
2023/05/06 00:02:07;;;;;;;16.73;14.73;;;14.30;99.90;;;;;;5010375;28;20071;-47
2023/05/06 00:04:54;;;;;;;17.40;14.65;;;14.40;99.90;;;;;;5001868;28;20034;-46
2023/05/06 00:07:40;;;;;;;18.55;14.38;;;14.30;99.90;;;;;;5011737;28;20027;-46
2023/05/06 00:10:26;;;;;;;16.65;14.57;;;14.40;99.90;;;;;;5011185;28;20038;-53
2023/05/06 00:13:12;;;;;;;17.10;14.70;;;14.40;99.90;;;;;;5010033;28;20036;-48
2023/05/06 00:15:58;;;;;;;17.33;14.48;;;14.30;99.90;;;;;;5011880;28;20033;-49
2023/05/06 00:18:44;;;;;;;15.98;14.32;;;14.30;99.90;;;;;;5011015;28;20034;-51
2023/05/06 00:21:30;;;;;;;19.05;14.57;;;14.40;99.90;;;;;;5010040;28;20025;-51
2023/05/06 00:24:16;;;;;;;16.88;13.43;;;14.40;99.90;;;;;;5014767;28;20044;-49
2023/05/06 00:27:03;;;;;;;16.40;14.20;;;14.40;99.90;;;;;;4995208;28;20058;-50
2023/05/06 00:29:49;;;;;;;16.05;14.32;;;14.40;99.90;;;;;;4994973;28;20117;-49
2023/05/06 00:32:35;;;;;;;19.52;13.85;;;14.40;99.90;;;;;;5011109;28;20486;-48
2023/05/06 00:35:21;;;;;;;17.35;15.07;;;14.40;99.90;;;;;;5005116;28;20080;-48
2023/05/06 00:38:09;;;;;;;15.65;13.80;;;14.40;99.90;;;;;;5014252;28;20018;-52
2023/05/06 00:40:55;;;;;;;14.77;13.27;;;14.40;99.90;;;;;;5014190;28;20037;-50
2023/05/06 00:43:41;;;;;;;15.02;13.38;;;14.40;99.90;;;;;;5013893;28;20030;-48
2023/05/06 00:46:27;;;;;;;15.50;13.70;;;14.40;99.90;;;;;;5013785;28;20041;-49
2023/05/06 00:49:13;;;;;;;16.00;13.82;;;14.50;99.90;;;;;;5013471;28;20085;-48
2023/05/06 00:52:00;;;;;;;17.92;14.20;;;14.60;99.90;;;;;;5014513;28;20033;-48
2023/05/06 00:54:46;;;;;;;18.17;14.38;;;14.60;99.90;;;;;;5015195;28;20072;-48
2023/05/06 00:57:32;;;;;;;17.10;14.20;;;14.50;99.90;;;;;;4994298;28;20411;-49
2023/05/06 01:00:19;;;;;;;16.85;15.05;;;14.40;99.90;;;;;;5014384;28;20037;-49
2023/05/06 01:03:05;;;;;;;15.77;14.00;;;14.40;99.90;;;;;;5014950;28;20030;-48
2023/05/06 01:06:18;;;;;;;17.60;15.20;;;14.40;99.90;;;;;;5016566;28;20034;-51
2023/05/06 01:09:13;;;;;;;19.42;13.82;;;14.40;99.90;;;;;;5013457;28;20033;-48
2023/05/06 01:12:08;;;;;;;20.15;14.35;;;14.40;99.90;;;;;;5014253;28;20045;-50
2023/05/06 01:15:05;;;;;;;21.00;16.20;;;14.30;99.90;;;;;;5001936;28;20494;-48
2023/05/06 01:17:53;;;;;;;17.27;14.65;;;14.30;99.90;;;;;;5029773;28;20108;-48
2023/05/06 01:20:42;;;;;;;18.08;16.00;;;14.30;99.90;;;;;;5023357;28;20038;-48
2023/05/06 01:23:28;;;;;;;16.75;14.88;;;14.10;99.90;;;;;;5014118;28;20030;-46
2023/05/06 01:26:14;;;;;;;18.13;14.60;;;14.10;99.90;;;;;;5008245;28;20065;-51
2023/05/06 01:29:01;;;;;;;22.58;17.67;;;14.00;99.90;;;;;;5013931;28;20065;-49
2023/05/06 01:31:50;;;;;;;20.70;15.52;;;14.10;99.90;;;;;;5014869;28;20038;-48
2023/05/06 01:34:46;;;;;;;17.30;15.07;;;14.00;99.90;;;;;;5013927;28;20024;-47
2023/05/06 01:37:40;;;;;;;18.52;16.10;;;14.00;99.90;;;;;;5014059;28;20018;-48
2023/05/06 01:40:29;;;;;;;18.70;16.15;;;13.80;99.90;;;;;;5012812;28;20053;-48
2023/05/06 01:43:17;;;;;;;17.70;15.90;;;13.90;99.90;;;;;;5013768;28;20058;-47
2023/05/06 01:46:05;;;;;;;17.45;15.65;;;13.90;99.90;;;;;;5014273;28;20045;-46
2023/05/06 01:48:56;;;;;;;18.45;16.30;;;13.80;99.90;;;;;;5013968;28;20030;-47
2023/05/06 01:51:52;;;;;;;19.60;17.45;;;13.70;99.90;;;;;;5013840;28;20034;-47
2023/05/06 01:54:38;;;;;;;19.75;16.75;;;13.70;99.90;;;;;;5013792;28;20396;-49
2023/05/06 01:57:24;;;;;;;22.55;17.15;;;13.70;99.90;;;;;;5011243;28;20216;-48
2023/05/06 02:00:10;;;;;;;22.13;16.58;;;13.80;99.90;;;;;;5001864;28;20037;-48
2023/05/06 02:02:56;;;;;;;18.33;16.40;;;13.80;99.90;;;;;;5011543;28;20072;-49
2023/05/06 02:05:42;;;;;;;18.80;16.83;;;13.70;99.90;;;;;;5012833;28;20037;-50
2023/05/06 02:08:28;;;;;;;19.38;16.52;;;13.70;99.90;;;;;;5013151;28;20073;-48
2023/05/06 02:11:14;;;;;;;18.83;16.95;;;13.60;99.90;;;;;;5012265;28;20030;-48
2023/05/06 02:14:00;;;;;;;19.55;17.60;;;13.70;99.90;;;;;;5012497;28;20038;-47
2023/05/06 02:16:46;;;;;;;21.73;16.77;;;13.80;99.90;;;;;;5012831;28;20101;-47
2023/05/06 02:19:33;;;;;;;22.05;17.90;;;13.70;99.90;;;;;;4993154;28;20030;-47
2023/05/06 02:22:19;;;;;;;20.80;16.55;;;13.70;99.90;;;;;;5010076;28;20084;-48
2023/05/06 02:25:06;;;;;;;19.58;17.50;;;13.70;99.90;;;;;;5013644;28;20113;-48
2023/05/06 02:27:52;;;;;;;20.70;17.45;;;13.80;99.90;;;;;;5011454;28;20122;-48
2023/05/06 02:30:37;;;;;;;20.83;18.30;;;13.50;99.90;;;;;;5011921;28;20125;-48
2023/05/06 02:33:25;;;;;;;21.13;17.55;;;13.50;99.90;;;;;;5012679;28;20070;-48
2023/05/06 02:36:11;;;;;;;20.77;17.73;;;13.40;99.90;;;;;;5011837;28;20030;-48
2023/05/06 02:38:57;;;;;;;22.52;18.83;;;13.50;99.90;;;;;;5011951;28;20026;-47
2023/05/06 02:41:43;;;;;;;19.35;17.35;;;13.40;99.90;;;;;;5012272;28;20029;-47
2023/05/06 02:44:31;;;;;;;20.33;18.17;;;13.50;99.90;;;;;;5012168;28;20046;-46
2023/05/06 02:47:17;;;;;;;20.92;17.05;;;13.40;99.90;;;;;;5011838;28;20036;-48
2023/05/06 02:50:03;;;;;;;20.05;18.02;;;13.60;99.90;;;;;;4992138;28;20069;-48
2023/05/06 02:52:49;;;;;;;21.92;18.02;;;13.60;99.90;;;;;;5011990;28;20161;-48
2023/05/06 02:55:35;;;;;;;18.83;16.83;;;13.50;99.90;;;;;;5011606;28;20022;-48
2023/05/06 02:58:21;;;;;;;23.35;18.88;;;13.50;99.90;;;;;;4997757;28;20062;-50
2023/05/06 03:01:08;;;;;;;21.50;19.13;;;13.50;99.90;;;;;;5010938;28;20034;-48
2023/05/06 03:03:54;;;;;;;19.60;17.60;;;13.50;99.90;;;;;;5012811;28;20042;-50
2023/05/06 03:06:39;;;;;;;20.65;18.38;;;13.50;99.90;;;;;;5011913;28;20416;-51
2023/05/06 03:09:25;;;;;;;25.90;18.48;;;13.40;99.90;;;;;;5010728;28;20022;-50
2023/05/06 03:12:11;;;;;;;22.60;19.10;;;13.50;99.90;;;;;;5011460;28;20033;-49
2023/05/06 03:14:57;;;;;;;23.20;17.95;;;13.50;99.90;;;;;;5011818;28;20485;-48
2023/05/06 03:17:45;;;;;;;25.48;20.63;;;13.30;99.90;;;;;;5010687;28;20030;-47
2023/05/06 03:20:31;;;;;;;21.05;18.85;;;13.40;99.90;;;;;;5012596;28;20030;-50
2023/05/06 03:23:17;;;;;;;20.77;18.58;;;13.50;99.90;;;;;;5015657;28;20080;-49
2023/05/06 03:26:03;;;;;;;20.90;18.60;;;13.50;99.90;;;;;;5009385;28;20033;-49
2023/05/06 03:28:49;;;;;;;24.27;17.80;;;13.50;99.90;;;;;;5012271;28;20038;-51
2023/05/06 03:31:38;;;;;;;19.70;17.73;;;13.50;99.90;;;;;;5012496;28;20029;-48
2023/05/06 03:34:24;;;;;;;23.10;18.83;;;13.50;99.90;;;;;;5012569;28;20030;-47
2023/05/06 03:37:10;;;;;;;22.45;19.27;;;13.50;99.90;;;;;;5010980;28;20022;-48
2023/05/06 03:39:56;;;;;;;22.50;18.75;;;13.30;99.90;;;;;;5012409;28;20026;-47
2023/05/06 03:42:43;;;;;;;21.30;18.67;;;13.30;99.90;;;;;;5012649;28;20033;-48
2023/05/06 03:45:29;;;;;;;21.73;19.15;;;13.30;99.90;;;;;;5010855;28;20511;-46
2023/05/06 03:48:15;;;;;;;26.63;19.38;;;13.20;99.90;;;;;;5011876;28;20498;-49
2023/05/06 03:51:04;;;;;;;21.75;19.15;;;13.20;99.90;;;;;;5010527;28;20418;-47
2023/05/06 03:53:50;;;;;;;24.63;19.38;;;13.20;99.90;;;;;;5011498;28;20574;-49
2023/05/06 03:56:36;;;;;;;25.38;19.73;;;13.20;99.90;;;;;;5011624;28;20109;-49
2023/05/06 03:59:22;;;;;;;23.50;19.30;;;13.00;99.90;;;;;;5015959;28;20383;-48
2023/05/06 04:02:08;;;;;;;22.52;19.60;;;13.10;99.90;;;;;;4997090;28;20039;-47
2023/05/06 04:04:54;;;;;;;23.40;20.85;;;13.10;99.90;;;;;;5015606;28;20026;-49
2023/05/06 04:07:40;;;;;;;21.25;19.15;;;12.90;99.90;;;;;;5015323;28;20057;-49
2023/05/06 04:10:26;;;;;;;24.65;19.77;;;12.90;99.90;;;;;;5015832;28;20092;-50
2023/05/06 04:13:12;;;;;;;21.75;19.42;;;12.80;99.90;;;;;;5016717;28;20514;-51
2023/05/06 04:15:58;;;;;;;25.42;20.80;;;12.70;99.90;;;;;;5015371;28;20022;-50
2023/05/06 04:18:44;;;;;;;23.55;20.23;;;12.60;99.90;;;;;;5015654;28;20064;-50
2023/05/06 04:21:30;;;;;;;24.35;20.17;;;12.60;99.90;;;;;;5015657;28;20494;-50
2023/05/06 04:24:16;;;;;;;21.48;18.67;;;12.60;99.90;;;;;;5014224;28;20128;-51
2023/05/06 04:27:03;;;;;;;22.92;18.98;;;12.80;99.90;;;;;;4995308;28;20728;-50
2023/05/06 04:29:49;;;;;;;20.83;18.55;;;12.50;99.90;;;;;;4995333;28;20034;-49
2023/05/06 04:32:35;;;;;;;22.77;19.27;;;12.50;99.90;;;;;;4995724;28;20023;-49
2023/05/06 04:35:22;;;;;;;23.17;19.33;;;12.50;99.90;;;;;;5003470;28;20034;-50
2023/05/06 04:38:08;;;;;;;22.15;18.10;;;12.60;99.90;;;;;;5014859;28;20494;-49
2023/05/06 04:40:55;;;;;;;24.75;19.15;;;12.60;99.90;;;;;;5015276;28;20113;-50
2023/05/06 04:43:41;;;;;;;25.02;19.15;;;12.70;99.90;;;;;;5015123;28;20084;-49
2023/05/06 04:46:27;;;;;;;27.23;18.80;;;12.90;99.90;;;;;;5014690;28;20030;-47
2023/05/06 04:49:13;;;;;;;21.23;18.73;;;12.90;99.90;;;;;;5014604;28;20160;-47
2023/05/06 04:52:02;;;;;;;21.25;17.55;;;12.60;99.90;;;;;;5014417;28;20030;-46
2023/05/06 04:54:48;;;;;;;19.55;17.45;;;12.70;99.90;;;;;;5012824;28;20465;-46
2023/05/06 04:57:36;;;;;;;23.17;18.83;;;12.70;99.90;;;;;;4994083;28;20030;-49
2023/05/06 05:00:25;;;;;;;19.02;16.48;;;12.80;99.90;;;;;;5011592;28;20029;-47
2023/05/06 05:03:11;;;;;;;19.85;15.77;;;13.00;99.90;;;;;;5014869;28;20030;-48
2023/05/06 05:05:57;;;;;;;19.33;16.38;;;13.10;99.90;;;;;;5014362;28;20030;-48
2023/05/06 05:08:43;;;;;;;23.60;16.00;;;13.10;99.90;;;;;;5013349;28;20498;-48
2023/05/06 05:11:28;;;;;;;19.67;16.50;;;13.00;99.90;;;;;;5013475;28;20034;-49
2023/05/06 05:14:14;;;;;;;20.45;16.92;;;13.00;99.90;;;;;;5014680;28;20022;-47
2023/05/06 05:17:00;;;;;;;18.50;16.10;;;13.10;99.90;;;;;;5012808;28;20113;-50
2023/05/06 05:19:46;;;;;;;22.90;16.02;;;13.00;99.90;;;;;;5013436;28;20117;-50
2023/05/06 05:22:32;;;;;;;21.95;15.30;;;13.00;99.90;;;;;;5013411;28;20026;-48
2023/05/06 05:25:18;;;;;;;18.60;16.70;;;13.00;99.90;;;;;;5011478;28;20111;-48
2023/05/06 05:28:04;;;;;;;18.83;16.33;;;12.90;99.90;;;;;;5012426;28;20106;-51
2023/05/06 05:30:50;;;;;;;20.60;15.00;;;13.10;99.90;;;;;;5014835;28;20114;-52
2023/05/06 05:33:39;;;;;;;19.75;15.98;;;13.30;99.90;;;;;;5014876;28;20029;-52
2023/05/06 05:36:26;;;;;;;19.63;15.38;;;13.40;99.90;;;;;;5013804;28;20402;-51
2023/05/06 05:39:15;;;;;;;21.60;17.42;;;13.40;99.90;;;;;;5017748;28;20026;-50
2023/05/06 05:42:01;;;;;;;16.83;14.95;;;13.40;99.90;;;;;;5016270;28;20030;-52
2023/05/06 05:44:49;;;;;;;23.05;16.05;;;13.40;99.90;;;;;;5005465;28;20038;-50
2023/05/06 05:47:35;;;;;;;18.35;15.45;;;13.50;99.90;;;;;;5004223;28;20034;-49
2023/05/06 05:50:21;;;;;;;22.92;16.73;;;13.50;99.90;;;;;;5013330;28;20038;-48
2023/05/06 05:53:07;;;;;;;20.35;16.17;;;13.60;99.90;;;;;;5013980;28;20026;-50
2023/05/06 05:55:53;;;;;;;22.20;15.70;;;13.60;99.90;;;;;;5012321;28;20454;-50
2023/05/06 05:58:39;;;;;;;22.85;16.55;;;13.60;99.90;;;;;;5012604;28;20356;-47
2023/05/06 06:01:25;;;;;;;19.60;16.60;;;13.60;99.90;;;;;;5011246;28;20167;-45
2023/05/06 06:04:11;;;;;;;21.88;18.20;;;13.50;99.90;;;;;;5012998;28;20026;-45
2023/05/06 06:06:57;;;;;;;21.90;17.60;;;13.50;99.90;;;;;;5013788;28;20034;-48
2023/05/06 06:09:45;;;;;;;25.23;18.50;;;13.50;99.90;;;;;;5012748;28;20117;-49
2023/05/06 06:12:31;;;;;;;30.05;21.25;;;13.40;99.90;;;;;;5013791;28;20086;-49
2023/05/06 06:15:17;;;;;;;23.00;19.02;;;13.40;99.90;;;;;;5012591;28;20112;-49
2023/05/06 06:18:03;;;;;;;22.00;19.70;;;13.50;99.90;;;;;;5014345;28;20026;-50
2023/05/06 06:20:49;;;;;;;22.77;19.42;;;13.50;99.90;;;;;;5014894;28;20061;-51
2023/05/06 06:23:35;;;;;;;24.63;19.95;;;13.60;99.90;;;;;;5012889;28;20092;-50
2023/05/06 06:26:21;;;;;;;27.45;21.23;;;13.60;99.90;;;;;;5012829;28;20088;-49
2023/05/06 06:29:07;;;;;;;28.98;22.38;;;13.30;99.90;;;;;;4993608;28;20061;-48
2023/05/06 06:31:54;;;;;;;24.73;21.65;;;13.00;99.90;;;;;;5003733;28;20034;-52
2023/05/06 06:34:40;;;;;;;23.75;21.20;;;13.20;99.90;;;;;;5004352;28;20105;-51
2023/05/06 06:37:26;;;;;;;24.13;21.02;;;13.20;99.90;;;;;;5010978;28;20018;-59
2023/05/06 06:40:13;;;;;;;25.52;21.10;;;13.30;99.90;;;;;;5012773;28;20030;-49
2023/05/06 06:42:59;;;;;;;28.70;20.73;;;13.40;99.90;;;;;;5013217;28;20596;-48
2023/05/06 06:45:46;;;;;;;29.00;20.38;;;13.60;99.90;;;;;;5012976;28;20450;-48
2023/05/06 06:48:32;;;;;;;22.88;20.00;;;13.60;99.90;;;;;;5013129;28;20026;-49
2023/05/06 06:51:18;;;;;;;27.38;20.20;;;13.70;99.90;;;;;;5010899;28;20112;-49
2023/05/06 06:54:04;;;;;;;23.17;20.30;;;13.70;99.90;;;;;;5012668;28;20022;-48
2023/05/06 06:56:57;;;;;;;23.20;19.75;;;14.00;99.90;;;;;;5013275;28;20414;-50
2023/05/06 06:59:43;;;;;;;23.08;19.83;;;14.10;99.90;;;;;;5012076;28;20034;-49
2023/05/06 07:02:29;;;;;;;24.30;20.42;;;14.20;99.90;;;;;;5012427;28;20037;-51
2023/05/06 07:05:15;;;;;;;22.95;20.17;;;14.20;99.90;;;;;;5012501;28;20034;-51
2023/05/06 07:08:01;;;;;;;22.80;20.33;;;14.30;99.90;;;;;;5012975;28;20693;-53
2023/05/06 07:10:47;;;;;;;26.67;20.70;;;14.30;99.90;;;;;;5013242;28;20105;-48
2023/05/06 07:13:33;;;;;;;28.65;20.65;;;14.30;99.90;;;;;;5013472;28;20029;-48
2023/05/06 07:16:19;;;;;;;29.48;22.95;;;14.30;99.90;;;;;;5015915;28;20021;-46
2023/05/06 07:19:05;;;;;;;31.98;24.08;;;14.30;99.90;;;;;;5013923;28;20054;-47
2023/05/06 07:21:51;;;;;;;26.48;22.77;;;14.30;99.90;;;;;;5012518;28;20053;-48
2023/05/06 07:24:37;;;;;;;30.90;24.90;;;14.50;99.90;;;;;;5012518;28;20092;-48
2023/05/06 07:27:23;;;;;;;28.42;25.27;;;14.40;99.90;;;;;;5010932;28;20026;-47
2023/05/06 07:30:10;;;;;;;31.70;24.35;;;14.40;99.90;;;;;;5011228;28;20026;-48
2023/05/06 07:32:55;;;;;;;32.55;25.75;;;14.50;99.90;;;;;;5018767;28;20026;-47
2023/05/06 07:35:41;;;;;;;30.73;24.35;;;14.40;99.90;;;;;;5016918;28;20081;-49
2023/05/06 07:38:27;;;;;;;31.75;25.13;;;14.40;99.90;;;;;;5017554;28;20083;-48
2023/05/06 07:41:13;;;;;;;30.35;24.38;;;14.40;99.90;;;;;;5017689;28;20026;-48
2023/05/06 07:44:00;;;;;;;29.38;25.58;;;14.50;99.90;;;;;;5017443;28;20121;-46
2023/05/06 07:46:46;;;;;;;28.67;25.52;;;14.70;99.90;;;;;;5018377;28;20037;-46
2023/05/06 07:49:33;;;;;;;30.00;25.98;;;14.80;99.90;;;;;;5018176;28;20096;-44
2023/05/06 07:52:19;;;;;;;28.55;25.13;;;14.90;99.90;;;;;;5018686;28;20022;-47
2023/05/06 07:55:08;;;;;;;31.33;27.52;;;15.00;99.90;;;;;;5018322;28;20029;-47
2023/05/06 07:57:54;;;;;;;30.55;27.30;;;15.00;99.90;;;;;;5018407;28;20034;-46
2023/05/06 08:00:40;;;;;;;32.40;28.88;;;14.90;99.90;;;;;;5018449;28;20107;-45
2023/05/06 08:03:26;;;;;;;30.65;27.45;;;14.80;99.90;;;;;;5017094;28;20581;-49
2023/05/06 08:06:12;;;;;;;29.25;26.17;;;14.90;99.90;;;;;;4999190;28;20034;-48
2023/05/06 08:08:59;;;;;;;30.52;26.92;;;15.20;99.90;;;;;;5011018;28;20109;-45
2023/05/06 08:11:45;;;;;;;31.88;27.15;;;15.30;99.90;;;;;;5020197;28;20068;-47
2023/05/06 08:14:31;;;;;;;30.63;27.45;;;15.10;99.90;;;;;;5017800;28;20061;-48
2023/05/06 08:17:17;;;;;;;28.90;25.98;;;15.20;99.90;;;;;;5017360;28;20034;-46
2023/05/06 08:20:03;;;;;;;28.42;25.50;;;15.20;99.90;;;;;;5018026;28;20113;-47
2023/05/06 08:22:49;;;;;;;29.90;26.35;;;15.40;99.90;;;;;;5018004;28;20039;-46
2023/05/06 08:25:35;;;;;;;26.30;23.80;;;15.50;99.90;;;;;;5018928;28;20058;-47
2023/05/06 08:28:21;;;;;;;30.88;25.60;;;15.40;99.90;;;;;;5015633;28;20056;-46
2023/05/06 08:31:07;;;;;;;27.40;24.70;;;15.40;99.90;;;;;;5019136;28;20029;-46
2023/05/06 08:33:53;;;;;;;27.10;24.40;;;15.60;99.90;;;;;;5018920;28;20052;-49
2023/05/06 08:36:39;;;;;;;28.38;24.73;;;15.50;99.90;;;;;;5020090;28;20046;-45
2023/05/06 08:39:26;;;;;;;26.92;24.42;;;15.40;99.90;;;;;;5015044;28;20042;-46
2023/05/06 08:42:12;;;;;;;27.13;24.23;;;15.20;99.90;;;;;;5013815;28;20046;-47
2023/05/06 08:44:58;;;;;;;28.58;25.65;;;15.30;99.90;;;;;;5008200;28;20419;-52
2023/05/06 08:47:47;;;;;;;27.70;25.00;;;15.20;99.90;;;;;;5007422;28;20041;-48
2023/05/06 08:50:43;;;;;;;28.33;25.35;;;15.00;99.90;;;;;;5016606;28;20030;-47
2023/05/06 08:53:35;;;;;;;;;;;14.80;99.90;;;;;;5016138;28;20612;-50
2023/05/06 08:56:25;;;;;;;27.25;24.65;;;14.60;99.90;;;;;;5007090;28;20298;-48
2023/05/06 08:59:12;;;;;;;26.52;23.80;;;14.60;99.90;;;;;;4999108;28;20042;-47
2023/05/06 09:02:02;;;;;;;25.35;22.73;;;14.70;99.90;;;;;;5015511;28;20034;-47
2023/05/06 09:04:49;;;;;;;22.98;20.52;;;14.80;99.90;;;;;;5001064;28;20025;-46
2023/05/06 09:07:34;;;;;;;23.85;21.25;;;14.80;99.90;;;;;;4995561;28;20049;-46
2023/05/06 09:10:21;;;;;;;25.13;22.48;;;15.00;99.90;;;;;;4995604;28;20534;-46
2023/05/06 09:13:11;;;;;;;24.20;21.65;;;14.90;99.90;;;;;;5008243;28;20088;-47
2023/05/06 09:15:57;;;;;;;22.48;20.17;;;15.00;99.90;;;;;;5014083;28;20030;-45
2023/05/06 09:18:43;;;;;;;23.77;21.50;;;15.20;99.90;;;;;;5013538;28;20093;-47
2023/05/06 09:21:33;;;;;;;23.98;21.65;;;15.10;99.90;;;;;;5014309;28;20052;-46
2023/05/06 09:24:19;;;;;;;24.30;21.83;;;15.10;99.90;;;;;;5014220;28;20049;-45
2023/05/06 09:27:06;;;;;;;22.58;20.27;;;15.10;99.90;;;;;;5015386;28;20026;-49
2023/05/06 09:29:59;;;;;;;19.33;17.45;;;15.10;99.90;;;;;;5023326;28;20033;-50
2023/05/06 09:32:48;;;;;;;16.55;14.98;;;15.10;99.90;;;;;;5035501;28;20025;-47
2023/05/06 09:35:39;;;;;;;15.27;13.63;;;15.20;99.90;;;;;;5034277;28;20022;-48
2023/05/06 09:38:25;;;;;;;15.10;13.63;;;15.50;99.90;;;;;;5036240;28;20025;-45
2023/05/06 09:41:12;;;;;;;14.68;13.10;;;15.60;99.90;;;;;;5032743;28;20033;-46
2023/05/06 09:43:58;;;;;;;14.52;13.13;;;15.60;99.90;;;;;;5034004;28;20041;-45
2023/05/06 09:46:45;;;;;;;13.98;12.57;;;15.70;99.90;;;;;;5033675;28;20041;-48
2023/05/06 09:49:32;;;;;;;14.43;13.02;;;16.10;99.90;;;;;;5033206;28;20034;-44
2023/05/06 09:52:19;;;;;;;14.10;12.77;;;16.10;99.90;;;;;;5033183;28;20033;-49
2023/05/06 09:55:06;;;;;;;15.52;14.02;;;16.20;99.90;;;;;;5032453;28;20026;-45
2023/05/06 09:57:52;;;;;;;14.10;12.80;;;15.90;99.90;;;;;;5032947;28;20130;-48
2023/05/06 10:00:38;;;;;;;12.70;11.55;;;15.70;99.90;;;;;;5033072;28;20037;-46
2023/05/06 10:03:25;;;;;;;15.98;14.38;;;15.80;99.90;;;;;;5033234;28;20068;-43
2023/05/06 10:06:11;;;;;;;13.82;12.45;;;16.10;99.90;;;;;;5032854;28;20052;-46
2023/05/06 10:08:59;;;;;;;13.48;12.07;;;16.20;99.90;;;;;;5034242;28;20114;-46
2023/05/06 10:11:47;;;;;;;11.40;10.30;;;16.40;99.90;;;;;;5033484;28;20111;-50
2023/05/06 10:14:35;;;;;;;10.70;9.60;;;16.00;99.90;;;;;;5033423;28;20030;-49
2023/05/06 10:17:24;;;;;;;9.73;8.82;;;15.90;99.90;;;;;;5032245;28;20025;-48
2023/05/06 10:20:12;;;;;;;9.88;8.88;;;15.90;99.90;;;;;;5032347;28;20068;-45
2023/05/06 10:23:39;;;;;;;9.93;9.02;;;16.10;99.90;;;;;;5032240;28;20057;-45
2023/05/06 10:26:28;;;;;;;13.20;12.00;;;16.30;99.90;;;;;;5032235;28;20043;-46
2023/05/06 10:29:14;;;;;;;11.57;10.38;;;16.50;99.90;;;;;;5032787;28;20078;-45
2023/05/06 10:32:02;;;;;;;11.10;10.00;;;16.30;99.90;;;;;;5032785;28;20505;-48
2023/05/06 10:34:53;;;;;;;11.98;10.88;;;16.30;99.90;;;;;;5033618;28;20021;-46
2023/05/06 10:37:41;;;;;;;14.05;12.65;;;16.10;99.90;;;;;;5031442;28;20017;-49
2023/05/06 10:40:27;;;;;;;12.23;11.13;;;16.10;99.90;;;;;;5032322;28;20034;-45
2023/05/06 10:43:24;;;;;;;12.43;11.23;;;16.30;99.90;;;;;;5031943;28;20545;-47
2023/05/06 10:46:15;;;;;;;11.30;10.15;;;16.50;99.90;;;;;;5032636;28;20052;-49
2023/05/06 10:49:04;;;;;;;11.88;10.77;;;16.80;99.90;;;;;;5033385;28;20029;-45
2023/05/06 10:52:12;;;;;;;13.55;12.20;;;16.90;99.90;;;;;;5034181;28;20041;-46
2023/05/06 10:54:58;;;;;;;14.43;13.00;;;17.10;99.80;;;;;;5033595;28;20022;-49
2023/05/06 10:57:44;;;;;;;13.45;12.25;;;16.80;99.90;;;;;;5031036;28;20052;-47
2023/05/06 11:00:34;;;;;;;14.27;12.77;;;17.00;99.90;;;;;;5031977;28;20045;-45
2023/05/06 11:03:22;;;;;;;13.73;12.43;;;17.00;99.90;;;;;;5032690;28;20041;-47
2023/05/06 11:06:09;;;;;;;15.27;13.77;;;17.00;99.90;;;;;;5031751;28;20026;-50
2023/05/06 11:08:57;;;;;;;14.00;12.75;;;17.10;99.90;;;;;;5031438;28;20406;-47
2023/05/06 11:12:03;;;;;;;13.55;12.32;;;17.20;99.90;;;;;;5030759;28;20450;-47
2023/05/06 11:14:49;;;;;;;13.20;11.85;;;17.00;99.90;;;;;;5031021;28;20132;-49
2023/05/06 11:17:35;;;;;;;13.57;12.27;;;17.20;99.80;;;;;;5031106;28;20034;-50
2023/05/06 11:20:23;;;;;;;14.27;13.05;;;17.50;99.90;;;;;;5029499;28;20033;-49
2023/05/06 11:23:09;;;;;;;15.02;13.70;;;17.70;99.50;;;;;;5031212;28;20080;-49
2023/05/06 11:25:58;;;;;;;15.07;13.57;;;17.60;99.30;;;;;;5031544;28;20034;-45
2023/05/06 11:28:45;;;;;;;20.38;17.20;;;17.50;99.50;;;;;;5032040;28;20040;-45
2023/05/06 11:31:38;;;;;;;13.90;12.60;;;17.50;99.90;;;;;;5030932;28;20116;-45
2023/05/06 11:34:31;;;;;;;14.65;13.18;;;17.40;99.90;;;;;;5031804;28;20516;-44
2023/05/06 11:37:26;;;;;;;13.85;12.57;;;17.30;99.90;;;;;;5031651;28;20032;-47
2023/05/06 11:40:15;;;;;;;13.10;11.90;;;17.30;99.90;;;;;;5032646;28;20409;-46
2023/05/06 11:43:14;;;;;;;15.73;14.00;;;17.40;99.60;;;;;;5033408;28;20454;-47
2023/05/06 11:46:00;;;;;;;16.30;14.80;;;17.40;99.80;;;;;;5033128;28;20037;-49
2023/05/06 11:48:46;;;;;;;16.60;15.00;;;17.50;99.90;;;;;;5033327;28;20036;-48
2023/05/06 11:51:32;;;;;;;17.20;15.50;;;17.70;99.90;;;;;;5031385;28;20030;-48
2023/05/06 11:54:21;;;;;;;17.05;15.45;;;17.50;99.90;;;;;;5029431;28;20026;-48
2023/05/06 11:57:08;;;;;;;15.48;14.07;;;17.70;99.90;;;;;;5031307;28;20040;-47
2023/05/06 11:59:54;;;;;;;16.38;14.88;;;17.90;99.60;;;;;;5031402;28;20049;-48
2023/05/06 12:02:40;;;;;;;17.38;15.65;;;17.60;99.90;;;;;;5030395;28;20092;-47
2023/05/06 12:05:28;;;;;;;15.30;13.80;;;17.60;99.90;;;;;;5030343;28;20515;-49
2023/05/06 12:08:24;;;;;;;16.02;14.43;;;17.70;99.90;;;;;;5030387;28;20406;-49
2023/05/06 12:11:10;;;;;;;14.18;12.88;;;18.00;99.90;;;;;;5030201;28;20029;-47
2023/05/06 12:13:56;;;;;;;15.75;14.07;;;18.40;99.00;;;;;;5030927;28;20084;-51
2023/05/06 12:16:42;;;;;;;18.30;16.60;;;18.40;99.20;;;;;;5029818;28;20033;-50
2023/05/06 12:19:29;;;;;;;17.52;15.80;;;18.40;99.60;;;;;;5032213;28;20030;-49
2023/05/06 12:22:20;;;;;;;17.85;16.15;;;18.20;99.90;;;;;;5035173;28;20175;-46
2023/05/06 12:25:14;;;;;;;16.80;15.30;;;18.10;99.70;;;;;;5033536;28;20038;-46
2023/05/06 12:28:00;;;;;;;15.98;14.45;;;18.10;99.50;;;;;;5033797;28;20034;-46
2023/05/06 12:30:46;;;;;;;15.23;13.73;;;18.30;99.30;;;;;;5033409;28;20026;-45
2023/05/06 12:33:47;;;;;;;15.45;13.95;;;18.70;99.00;;;;;;5035538;28;20429;-45
2023/05/06 12:36:39;;;;;;;14.48;13.18;;;18.40;98.50;;;;;;5039785;28;20032;-47
2023/05/06 12:39:33;;;;;;;12.48;11.27;;;18.00;99.10;;;;;;5038349;28;20056;-48
2023/05/06 12:42:22;;;;;;;12.75;11.00;;;18.00;98.70;;;;;;5034582;28;20437;-48
2023/05/06 12:45:14;;;;;;;13.73;12.43;;;17.90;99.20;;;;;;5033652;28;20061;-47
2023/05/06 12:48:02;;;;;;;13.07;11.77;;;17.90;99.50;;;;;;5032946;28;20030;-48
2023/05/06 12:50:49;;;;;;;12.63;11.32;;;17.90;99.00;;;;;;5034285;28;20026;-47
2023/05/06 12:53:35;;;;;;;14.18;12.82;;;17.90;98.80;;;;;;5033153;28;20026;-48
2023/05/06 12:56:21;;;;;;;14.40;12.95;;;17.90;99.60;;;;;;5033043;28;20025;-49
2023/05/06 12:59:07;;;;;;;13.43;12.20;;;17.90;99.50;;;;;;5033617;28;20379;-49
2023/05/06 13:01:53;;;;;;;13.60;12.27;;;18.10;99.50;;;;;;5033263;28;20041;-47
2023/05/06 13:04:40;;;;;;;13.88;12.48;;;18.10;99.20;;;;;;5033011;28;20069;-48
2023/05/06 13:07:26;;;;;;;13.20;12.00;;;18.20;99.20;;;;;;5033575;28;20124;-49
2023/05/06 13:10:12;;;;;;;13.07;11.77;;;18.10;99.00;;;;;;5033236;28;20429;-50
2023/05/06 13:12:58;;;;;;;12.18;10.98;;;18.10;98.90;;;;;;5033805;28;20037;-50
2023/05/06 13:15:44;;;;;;;16.10;14.60;;;18.20;99.30;;;;;;5033714;28;20038;-48
2023/05/06 13:18:30;;;;;;;17.27;15.52;;;17.80;99.90;;;;;;5034722;28;20433;-48
2023/05/06 13:21:16;;;;;;;17.08;15.27;;;17.60;99.90;;;;;;5033708;28;20627;-46
2023/05/06 13:24:02;;;;;;;19.30;14.95;;;17.60;99.90;;;;;;5034409;28;20033;-46
2023/05/06 13:26:48;;;;;;;17.30;15.60;;;17.50;99.90;;;;;;5033342;28;20064;-47
2023/05/06 13:29:34;;;;;;;17.65;15.90;;;17.50;99.90;;;;;;5032917;28;20037;-49
2023/05/06 13:32:21;;;;;;;16.25;14.65;;;17.50;99.90;;;;;;5033779;28;20045;-49
2023/05/06 13:35:07;;;;;;;17.17;15.45;;;17.70;99.90;;;;;;5035289;28;20139;-48
2023/05/06 13:37:53;;;;;;;16.02;14.02;;;17.90;99.60;;;;;;5034804;28;20103;-50
2023/05/06 13:40:39;;;;;;;16.75;14.77;;;18.00;99.60;;;;;;5032903;28;20037;-49
2023/05/06 13:43:25;;;;;;;16.33;14.73;;;18.10;99.60;;;;;;5033910;28;20497;-48
2023/05/06 13:46:11;;;;;;;14.57;13.07;;;18.30;99.20;;;;;;5033819;28;20033;-51
2023/05/06 13:48:57;;;;;;;13.38;12.00;;;18.70;98.30;;;;;;5034218;28;20029;-49
2023/05/06 13:51:44;;;;;;;13.57;12.23;;;19.00;98.10;;;;;;5032804;28;20065;-50
2023/05/06 13:54:30;;;;;;;14.82;13.32;;;19.60;97.70;;;;;;5033746;28;20022;-50
2023/05/06 13:57:16;;;;;;;15.60;13.15;;;19.80;96.80;;;;;;5032855;28;20037;-50
2023/05/06 14:00:03;;;;;;;13.93;12.52;;;19.80;97.00;;;;;;5032574;28;20046;-51
2023/05/06 14:02:49;;;;;;;16.40;14.75;;;19.50;97.20;;;;;;5033320;28;20033;-51
2023/05/06 14:05:35;;;;;;;14.18;12.57;;;19.00;97.60;;;;;;5032326;28;20041;-51
2023/05/06 14:08:21;;;;;;;22.27;19.08;;;19.30;97.30;;;;;;5032741;28;20045;-49
2023/05/06 14:11:10;;;;;;;18.13;16.15;;;19.50;96.80;;;;;;5033624;28;20037;-50